createdAt,value
2018-12-31T00:00:53.753Z,48.00
2018-12-31T00:03:22.852Z,45.17
2018-12-31T00:05:53.391Z,45.07
2018-12-31T00:08:23.083Z,46.47
2018-12-31T00:10:52.383Z,50.67
2018-12-31T00:13:21.481Z,40.73
2018-12-31T00:15:50.420Z,65.73
2018-12-31T00:18:19.673Z,70.87
2018-12-31T00:20:48.531Z,69.07
2018-12-31T00:23:17.868Z,55.53
2018-12-31T00:25:47.156Z,53.90
2018-12-31T00:28:16.157Z,65.13
2018-12-31T00:30:45.128Z,61.43
2018-12-31T00:33:14.646Z,64.47
2018-12-31T00:35:43.947Z,61.00
2018-12-31T00:38:13.346Z,56.10
2018-12-31T00:40:42.428Z,61.33
2018-12-31T00:43:11.530Z,67.40
2018-12-31T00:45:40.529Z,74.47
2018-12-31T00:48:10.035Z,59.67
2018-12-31T00:50:39.338Z,72.07
2018-12-31T00:53:08.833Z,64.87
2018-12-31T00:55:37.726Z,68.43
2018-12-31T00:58:06.831Z,84.80
2018-12-31T01:00:36.323Z,66.73
2018-12-31T01:03:05.418Z,77.47
2018-12-31T01:05:34.312Z,65.50
2018-12-31T01:08:03.614Z,81.87
2018-12-31T01:10:32.559Z,61.27
2018-12-31T01:13:01.549Z,74.10
2018-12-31T01:15:30.533Z,78.80
2018-12-31T01:17:59.576Z,88.37
2018-12-31T01:20:28.878Z,78.97
2018-12-31T01:22:57.914Z,76.63
2018-12-31T01:25:27.062Z,75.50
2018-12-31T01:27:56.362Z,75.10
2018-12-31T01:30:27.377Z,69.17
2018-12-31T01:32:56.396Z,78.80
2018-12-31T01:35:25.491Z,68.83
2018-12-31T01:37:54.584Z,65.07
2018-12-31T01:40:23.888Z,73.43
2018-12-31T01:42:53.183Z,58.37
2018-12-31T01:45:22.686Z,63.67
2018-12-31T01:47:51.587Z,67.73
2018-12-31T01:50:20.476Z,58.83
2018-12-31T01:52:49.974Z,66.40
2018-12-31T01:55:18.965Z,65.83
2018-12-31T01:57:47.955Z,72.40
2018-12-31T02:00:17.464Z,58.73
2018-12-31T02:02:46.554Z,67.70
2018-12-31T02:05:15.648Z,62.70
2018-12-31T02:07:45.915Z,63.87
2018-12-31T02:10:14.861Z,61.10
2018-12-31T02:12:43.874Z,58.37
2018-12-31T02:15:13.464Z,54.20
2018-12-31T02:17:42.759Z,54.00
2018-12-31T02:20:11.741Z,54.67
2018-12-31T02:22:41.151Z,53.77
2018-12-31T02:25:10.041Z,55.63
2018-12-31T02:27:38.926Z,51.67
2018-12-31T02:30:08.443Z,57.40
2018-12-31T02:32:37.348Z,56.30
2018-12-31T02:35:06.423Z,55.73
2018-12-31T02:37:35.942Z,57.10
2018-12-31T02:40:05.226Z,56.93
2018-12-31T02:42:34.321Z,55.50
2018-12-31T02:45:23.088Z,61.43
2018-12-31T02:47:52.168Z,49.47
2018-12-31T02:50:21.371Z,64.20
2018-12-31T02:52:50.362Z,60.60
2018-12-31T02:55:19.656Z,55.10
2018-12-31T02:57:49.050Z,57.33
2018-12-31T03:00:18.221Z,53.67
2018-12-31T03:02:47.353Z,60.63
2018-12-31T03:05:16.745Z,106.87
2018-12-31T03:07:45.837Z,61.47
2018-12-31T03:10:14.864Z,63.13
2018-12-31T03:12:44.442Z,58.40
2018-12-31T03:15:13.849Z,57.17
2018-12-31T03:17:42.942Z,67.30
2018-12-31T03:20:12.241Z,67.90
2018-12-31T03:22:42.516Z,71.77
2018-12-31T03:25:11.454Z,64.80
2018-12-31T03:27:40.570Z,77.13
2018-12-31T03:30:14.786Z,134.37
2018-12-31T03:32:43.750Z,64.37
2018-12-31T03:35:12.750Z,67.83
2018-12-31T03:37:42.050Z,70.90
2018-12-31T03:40:11.143Z,61.13
2018-12-31T03:42:40.001Z,66.73
2018-12-31T03:45:09.610Z,62.03
2018-12-31T03:47:38.571Z,60.90
2018-12-31T03:50:08.158Z,64.47
2018-12-31T03:52:41.531Z,61.87
2018-12-31T03:55:10.427Z,59.20
2018-12-31T03:57:39.516Z,67.03
2018-12-31T04:00:09.059Z,61.00
2018-12-31T04:02:38.117Z,71.13
2018-12-31T04:05:07.447Z,71.73
2018-12-31T04:07:52.884Z,69.33
2018-12-31T04:10:17.502Z,75.23
2018-12-31T04:12:46.578Z,90.40
2018-12-31T04:15:15.582Z,58.40
2018-12-31T04:17:44.767Z,62.00
2018-12-31T04:20:13.857Z,62.50
2018-12-31T04:22:50.947Z,57.23
2018-12-31T04:25:20.037Z,66.17
2018-12-31T04:27:49.161Z,54.80
2018-12-31T04:30:18.086Z,57.33
2018-12-31T04:32:46.978Z,63.70
2018-12-31T04:35:20.425Z,61.17
2018-12-31T04:37:50.029Z,55.77
2018-12-31T04:40:19.122Z,58.57
2018-12-31T04:42:48.204Z,57.63
2018-12-31T04:45:17.119Z,61.47
2018-12-31T04:47:46.189Z,77.90
2018-12-31T04:50:15.508Z,58.93
2018-12-31T04:52:44.788Z,60.03
2018-12-31T04:55:13.883Z,82.13
2018-12-31T04:57:42.746Z,106.57
2018-12-31T05:00:11.711Z,83.43
2018-12-31T05:02:40.858Z,69.33
2018-12-31T05:05:10.182Z,100.23
2018-12-31T05:07:39.151Z,76.87
2018-12-31T05:10:08.271Z,81.10
2018-12-31T05:12:37.340Z,105.07
2018-12-31T05:15:06.640Z,89.30
2018-12-31T05:17:36.349Z,106.13
2018-12-31T05:20:05.855Z,111.90
2018-12-31T05:22:34.952Z,114.43
2018-12-31T05:25:04.150Z,76.70
2018-12-31T05:27:33.148Z,79.27
2018-12-31T05:30:02.147Z,97.63
2018-12-31T05:32:33.489Z,78.53
2018-12-31T05:35:02.491Z,77.97
2018-12-31T05:37:31.694Z,74.40
2018-12-31T05:40:00.878Z,95.33
2018-12-31T05:42:29.960Z,89.57
2018-12-31T05:44:59.262Z,78.67
2018-12-31T05:47:28.358Z,83.00
2018-12-31T05:49:57.655Z,95.57
2018-12-31T05:52:29.003Z,83.60
2018-12-31T05:54:57.986Z,79.60
2018-12-31T05:57:27.003Z,108.10
2018-12-31T05:59:56.489Z,98.50
2018-12-31T06:02:25.393Z,79.53
2018-12-31T06:04:54.474Z,89.40
2018-12-31T06:07:23.571Z,89.87
2018-12-31T06:09:52.556Z,74.83
2018-12-31T06:12:21.552Z,77.50
2018-12-31T06:14:50.856Z,89.83
2018-12-31T06:17:19.952Z,84.23
2018-12-31T06:19:48.962Z,87.50
2018-12-31T06:22:18.268Z,84.93
2018-12-31T06:24:47.237Z,97.73
2018-12-31T06:27:16.236Z,82.67
2018-12-31T06:29:46.057Z,84.43
2018-12-31T06:32:15.128Z,79.30
2018-12-31T06:34:46.718Z,82.97
2018-12-31T06:37:18.149Z,77.40
2018-12-31T06:39:47.681Z,83.03
2018-12-31T06:42:16.634Z,77.50
2018-12-31T06:44:45.599Z,85.87
2018-12-31T06:47:14.937Z,73.57
2018-12-31T06:49:43.907Z,80.77
2018-12-31T06:52:20.786Z,81.93
2018-12-31T06:54:49.986Z,81.57
2018-12-31T06:57:19.101Z,82.80
2018-12-31T06:59:50.646Z,85.00
2018-12-31T07:02:19.646Z,83.27
2018-12-31T07:04:48.618Z,72.27
2018-12-31T07:07:17.729Z,79.47
2018-12-31T07:09:46.807Z,74.63
2018-12-31T07:12:16.314Z,71.23
2018-12-31T07:14:45.220Z,70.00
2018-12-31T07:17:14.337Z,71.33
2018-12-31T07:19:43.602Z,66.43
2018-12-31T07:22:12.689Z,67.13
2018-12-31T07:24:41.578Z,67.13
2018-12-31T07:27:10.696Z,66.67
2018-12-31T07:29:39.860Z,60.43
2018-12-31T07:32:08.781Z,61.27
2018-12-31T07:34:37.898Z,62.13
2018-12-31T07:37:06.857Z,54.37
2018-12-31T07:39:38.740Z,56.13
2018-12-31T07:42:07.795Z,51.57
2018-12-31T07:44:37.290Z,53.97
2018-12-31T07:47:06.528Z,49.07
2018-12-31T07:49:35.596Z,52.07
2018-12-31T07:52:07.560Z,52.60
2018-12-31T07:54:36.640Z,51.10
2018-12-31T07:57:05.750Z,48.47
2018-12-31T07:59:37.709Z,54.33
2018-12-31T08:02:08.982Z,53.87
2018-12-31T08:04:37.948Z,51.63
2018-12-31T08:07:07.484Z,50.17
2018-12-31T08:09:36.546Z,53.80
2018-12-31T08:12:05.425Z,49.80
2018-12-31T08:14:34.832Z,45.93
2018-12-31T08:17:03.729Z,49.97
2018-12-31T08:19:32.581Z,59.83
2018-12-31T08:22:07.139Z,51.73
2018-12-31T08:24:36.234Z,48.10
2018-12-31T08:27:05.329Z,58.07
2018-12-31T08:29:34.788Z,59.93
2018-12-31T08:32:12.419Z,52.40
2018-12-31T08:34:41.693Z,54.43
2018-12-31T08:37:10.634Z,55.57
2018-12-31T08:39:39.510Z,64.73
2018-12-31T08:42:08.492Z,65.70
2018-12-31T08:44:40.835Z,64.10
2018-12-31T08:47:09.926Z,58.70
2018-12-31T08:49:40.753Z,81.10
2018-12-31T08:52:10.096Z,68.23
2018-12-31T08:54:38.989Z,74.83
2018-12-31T08:57:08.148Z,74.60
2018-12-31T08:59:37.146Z,66.93
2018-12-31T09:02:06.085Z,57.30
2018-12-31T09:04:35.298Z,55.07
2018-12-31T09:07:04.373Z,58.13
2018-12-31T09:09:33.462Z,73.43
2018-12-31T09:12:12.531Z,54.10
2018-12-31T09:14:41.701Z,60.63
2018-12-31T09:17:12.321Z,54.93
2018-12-31T09:19:41.220Z,60.17
2018-12-31T09:22:10.155Z,55.03
2018-12-31T09:24:44.584Z,59.03
2018-12-31T09:27:11.608Z,64.27
2018-12-31T09:29:40.475Z,48.17
2018-12-31T09:32:10.059Z,52.33
2018-12-31T09:34:39.855Z,55.90
2018-12-31T09:37:09.268Z,52.40
2018-12-31T09:39:38.368Z,52.90
2018-12-31T09:42:07.646Z,45.13
2018-12-31T09:44:36.481Z,48.00
2018-12-31T09:47:05.395Z,46.17
2018-12-31T09:49:34.567Z,52.00
2018-12-31T09:52:03.840Z,58.53
2018-12-31T09:54:33.343Z,36.27
2018-12-31T09:57:02.537Z,45.13
2018-12-31T09:59:31.468Z,51.77
2018-12-31T10:02:00.625Z,40.57
2018-12-31T10:04:29.939Z,51.30
2018-12-31T10:06:58.793Z,49.77
2018-12-31T10:09:27.662Z,41.47
2018-12-31T10:11:56.855Z,42.50
2018-12-31T10:14:25.915Z,36.43
2018-12-31T10:16:54.782Z,38.20
2018-12-31T10:19:24.778Z,35.53
2018-12-31T10:21:54.619Z,38.03
2018-12-31T10:24:23.526Z,46.07
2018-12-31T10:26:52.720Z,34.70
2018-12-31T10:29:21.619Z,38.23
2018-12-31T10:31:50.488Z,31.50
2018-12-31T10:34:20.123Z,34.40
2018-12-31T10:36:49.458Z,43.73
2018-12-31T10:39:18.481Z,37.37
2018-12-31T10:41:48.208Z,50.03
2018-12-31T10:44:17.288Z,46.83
2018-12-31T10:46:46.903Z,52.90
2018-12-31T10:49:16.497Z,50.10
2018-12-31T10:51:45.404Z,42.03
2018-12-31T10:54:14.276Z,56.50
2018-12-31T10:56:43.789Z,56.37
2018-12-31T10:59:12.732Z,83.43
2018-12-31T11:01:41.876Z,68.90
2018-12-31T11:04:11.283Z,79.70
2018-12-31T11:06:41.598Z,93.73
2018-12-31T11:09:10.713Z,106.07
2018-12-31T11:11:39.883Z,89.27
2018-12-31T11:14:08.777Z,89.07
2018-12-31T11:16:37.793Z,89.90
2018-12-31T11:19:07.086Z,126.00
2018-12-31T11:21:36.213Z,57.53
2018-12-31T11:24:05.078Z,198.77
2018-12-31T11:26:34.258Z,39.47
2018-12-31T11:29:03.425Z,29.77
2018-12-31T11:31:32.660Z,62.40
2018-12-31T11:34:01.949Z,29.10
2018-12-31T11:36:32.431Z,28.57
2018-12-31T11:39:01.702Z,18.93
2018-12-31T11:41:31.072Z,16.27
2018-12-31T11:44:00.135Z,13.50
2018-12-31T11:46:29.079Z,15.17
2018-12-31T11:48:58.300Z,16.90
2018-12-31T11:51:27.447Z,13.43
2018-12-31T11:53:56.335Z,14.20
2018-12-31T11:56:25.534Z,13.60
2018-12-31T11:58:54.604Z,11.67
2018-12-31T12:01:23.564Z,16.20
2018-12-31T12:03:53.026Z,10.97
2018-12-31T12:06:22.096Z,13.10
2018-12-31T12:08:50.984Z,15.17
2018-12-31T12:11:20.169Z,17.67
2018-12-31T12:13:49.100Z,18.47
2018-12-31T12:16:18.046Z,41.97
2018-12-31T12:18:47.658Z,22.70
2018-12-31T12:21:16.520Z,19.40
2018-12-31T12:23:46.318Z,21.00
2018-12-31T12:26:16.779Z,26.87
2018-12-31T12:28:45.808Z,29.77
2018-12-31T12:31:14.907Z,19.53
2018-12-31T12:33:44.110Z,20.13
2018-12-31T12:36:13.078Z,26.33
2018-12-31T12:38:42.200Z,22.50
2018-12-31T12:41:11.416Z,22.77
2018-12-31T12:43:41.056Z,26.63
2018-12-31T12:46:10.355Z,24.40
2018-12-31T12:48:39.273Z,28.23
2018-12-31T12:51:08.147Z,26.33
2018-12-31T12:53:37.174Z,27.77
2018-12-31T12:56:08.114Z,24.67
2018-12-31T12:58:37.825Z,22.30
2018-12-31T13:01:08.348Z,24.57
2018-12-31T13:03:39.015Z,26.17
2018-12-31T13:06:07.941Z,22.40
2018-12-31T13:08:36.854Z,24.93
2018-12-31T13:11:06.122Z,22.10
2018-12-31T13:13:37.118Z,27.63
2018-12-31T13:16:07.732Z,26.63
2018-12-31T13:18:38.337Z,27.03
2018-12-31T13:21:07.432Z,27.90
2018-12-31T13:23:36.489Z,26.80
2018-12-31T13:26:06.463Z,27.97
2018-12-31T13:28:35.341Z,31.87
2018-12-31T13:31:04.426Z,29.90
2018-12-31T13:33:35.508Z,33.57
2018-12-31T13:36:04.422Z,33.63
2018-12-31T13:38:33.292Z,33.37
2018-12-31T13:41:02.599Z,33.80
2018-12-31T13:43:31.764Z,34.70
2018-12-31T13:46:01.043Z,44.67
2018-12-31T13:48:29.982Z,36.63
2018-12-31T13:50:59.329Z,40.13
2018-12-31T13:53:31.414Z,40.10
2018-12-31T13:56:00.651Z,40.67
2018-12-31T13:58:29.519Z,42.17
2018-12-31T14:00:58.410Z,39.00
2018-12-31T14:03:27.857Z,44.03
2018-12-31T14:05:56.725Z,41.33
2018-12-31T14:08:25.598Z,38.67
2018-12-31T14:10:54.502Z,41.80
2018-12-31T14:13:23.386Z,47.20
2018-12-31T14:15:52.248Z,55.27
2018-12-31T14:18:21.711Z,42.63
2018-12-31T14:20:50.596Z,44.67
2018-12-31T14:23:19.459Z,42.13
2018-12-31T14:25:48.433Z,42.10
2018-12-31T14:28:18.658Z,45.03
2018-12-31T14:30:47.600Z,35.40
2018-12-31T14:33:16.749Z,37.70
2018-12-31T14:35:46.719Z,46.00
2018-12-31T14:38:15.664Z,33.90
2018-12-31T14:40:45.897Z,34.00
2018-12-31T14:43:17.718Z,39.57
2018-12-31T14:45:47.018Z,33.37
2018-12-31T14:48:16.130Z,36.73
2018-12-31T14:50:45.232Z,34.67
2018-12-31T14:53:15.533Z,38.13
2018-12-31T14:55:45.035Z,40.30
2018-12-31T14:58:14.098Z,37.43
2018-12-31T15:00:42.971Z,33.77
2018-12-31T15:03:11.888Z,35.07
2018-12-31T15:05:41.198Z,32.00
2018-12-31T15:08:10.061Z,35.67
2018-12-31T15:10:39.598Z,31.20
2018-12-31T15:13:08.670Z,33.70
2018-12-31T15:15:37.556Z,33.23
2018-12-31T15:18:06.734Z,32.97
2018-12-31T15:20:37.017Z,29.40
2018-12-31T15:23:05.997Z,32.77
2018-12-31T15:25:35.164Z,33.83
2018-12-31T15:28:04.187Z,32.83
2018-12-31T15:30:33.491Z,37.33
2018-12-31T15:33:02.698Z,35.73
2018-12-31T15:35:31.594Z,32.07
2018-12-31T15:38:00.573Z,30.97
2018-12-31T15:40:29.872Z,34.30
2018-12-31T15:42:58.975Z,31.03
2018-12-31T15:45:28.030Z,34.03
2018-12-31T15:47:57.227Z,40.30
2018-12-31T15:50:26.142Z,34.40
2018-12-31T15:52:55.246Z,36.47
2018-12-31T15:55:24.405Z,39.23
2018-12-31T15:57:53.477Z,35.50
2018-12-31T16:00:22.381Z,34.27
2018-12-31T16:02:51.537Z,33.40
2018-12-31T16:05:20.627Z,34.73
2018-12-31T16:07:49.519Z,37.63
2018-12-31T16:10:20.488Z,36.13
2018-12-31T16:12:49.569Z,34.50
2018-12-31T16:15:18.533Z,34.13
2018-12-31T16:17:47.461Z,34.47
2018-12-31T16:20:16.321Z,30.80
2018-12-31T16:22:45.400Z,42.00
2018-12-31T16:25:15.112Z,32.13
2018-12-31T16:27:44.051Z,30.43
2018-12-31T16:30:12.973Z,48.00
2018-12-31T16:32:43.551Z,39.90
2018-12-31T16:35:12.939Z,33.60
2018-12-31T16:37:41.953Z,29.13
2018-12-31T16:40:11.900Z,30.17
2018-12-31T16:42:40.826Z,33.23
2018-12-31T16:45:09.689Z,27.57
2018-12-31T16:47:40.071Z,27.57
2018-12-31T16:50:10.496Z,27.10
2018-12-31T16:52:39.664Z,18.47
2018-12-31T16:55:08.648Z,19.50
2018-12-31T16:57:39.079Z,16.50
2018-12-31T17:00:10.441Z,18.07
2018-12-31T17:02:39.430Z,20.03
2018-12-31T17:05:08.410Z,22.70
2018-12-31T17:07:37.723Z,20.47
2018-12-31T17:10:09.583Z,16.40
2018-12-31T17:12:38.953Z,19.97
2018-12-31T17:15:07.931Z,23.33
2018-12-31T17:17:37.465Z,20.27
2018-12-31T17:20:07.178Z,19.83
2018-12-31T17:22:36.474Z,18.17
2018-12-31T17:25:06.388Z,17.43
2018-12-31T17:27:35.487Z,19.53
2018-12-31T17:30:05.192Z,19.73
2018-12-31T17:32:34.482Z,23.10
2018-12-31T17:35:04.507Z,15.60
2018-12-31T17:37:34.464Z,14.23
2018-12-31T17:40:06.753Z,19.03
2018-12-31T17:42:35.921Z,21.83
2018-12-31T17:45:06.828Z,22.10
2018-12-31T17:47:36.339Z,21.17
2018-12-31T17:50:07.068Z,18.63
2018-12-31T17:52:36.158Z,19.50
2018-12-31T17:55:05.871Z,16.70
2018-12-31T17:57:36.396Z,20.40
2018-12-31T18:00:08.256Z,19.53
2018-12-31T18:02:37.401Z,22.73
2018-12-31T18:05:06.294Z,23.73
2018-12-31T18:07:35.336Z,26.37
2018-12-31T18:10:04.640Z,20.30
2018-12-31T18:12:33.748Z,18.77
2018-12-31T18:15:02.811Z,21.23
2018-12-31T18:17:31.789Z,18.27
2018-12-31T18:20:01.014Z,15.73
2018-12-31T18:22:29.931Z,16.23
2018-12-31T18:24:59.205Z,22.83
2018-12-31T18:27:28.359Z,19.20
2018-12-31T18:29:57.230Z,19.17
2018-12-31T18:32:26.384Z,34.13
2018-12-31T18:34:55.887Z,33.13
2018-12-31T18:37:26.542Z,26.40
2018-12-31T18:39:57.994Z,24.00
2018-12-31T18:42:26.038Z,19.30
2018-12-31T18:44:55.132Z,16.43
2018-12-31T18:47:24.489Z,15.53
2018-12-31T18:49:53.732Z,17.60
2018-12-31T18:52:22.651Z,21.20
2018-12-31T18:54:51.656Z,20.43
2018-12-31T18:57:20.711Z,17.37
2018-12-31T18:59:49.935Z,17.43
2018-12-31T19:02:19.463Z,20.20
2018-12-31T19:04:48.386Z,21.57
2018-12-31T19:07:17.282Z,21.93
2018-12-31T19:09:46.349Z,17.60
2018-12-31T19:12:15.586Z,22.23
2018-12-31T19:14:44.611Z,20.67
2018-12-31T19:17:13.778Z,22.80
2018-12-31T19:19:42.800Z,49.23
2018-12-31T19:22:11.724Z,21.83
2018-12-31T19:24:40.863Z,22.27
2018-12-31T19:27:09.720Z,29.00
2018-12-31T19:29:38.757Z,21.37
2018-12-31T19:32:07.674Z,21.97
2018-12-31T19:34:36.562Z,20.87
2018-12-31T19:37:05.665Z,17.10
2018-12-31T19:39:39.634Z,27.37
2018-12-31T19:42:08.526Z,28.20
2018-12-31T19:44:37.422Z,18.00
2018-12-31T19:47:06.697Z,20.53
2018-12-31T19:49:41.171Z,19.63
2018-12-31T19:52:29.821Z,21.33
2018-12-31T19:55:08.012Z,22.07
2018-12-31T19:57:39.892Z,24.03
2018-12-31T20:00:11.400Z,25.67
2018-12-31T20:02:42.223Z,27.10
2018-12-31T20:05:11.247Z,28.07
2018-12-31T20:08:00.549Z,29.40
2018-12-31T20:10:27.351Z,32.90
2018-12-31T20:12:56.207Z,28.27
2018-12-31T20:15:25.244Z,33.77
2018-12-31T20:17:54.215Z,28.50
2018-12-31T20:20:23.313Z,35.27
2018-12-31T20:22:54.008Z,31.67
2018-12-31T20:25:23.046Z,27.90
2018-12-31T20:27:52.019Z,34.70
2018-12-31T20:30:21.727Z,29.03
2018-12-31T20:32:52.043Z,30.37
2018-12-31T20:35:21.252Z,26.47
2018-12-31T20:37:50.446Z,23.80
2018-12-31T20:40:20.161Z,22.70
2018-12-31T20:42:50.175Z,18.37
2018-12-31T20:45:19.259Z,22.50
2018-12-31T20:47:49.296Z,16.60
2018-12-31T20:50:18.632Z,17.53
2018-12-31T20:52:47.681Z,16.40
2018-12-31T20:55:17.513Z,18.80
2018-12-31T20:57:46.687Z,20.13
2018-12-31T21:00:15.953Z,20.30
2018-12-31T21:02:45.163Z,18.50
2018-12-31T21:05:14.172Z,20.17
2018-12-31T21:07:43.110Z,16.13
2018-12-31T21:10:12.739Z,15.37
2018-12-31T21:12:41.867Z,17.03
2018-12-31T21:15:12.401Z,17.57
2018-12-31T21:17:44.651Z,16.93
2018-12-31T21:20:13.863Z,17.70
2018-12-31T21:22:42.773Z,13.50
2018-12-31T21:25:13.369Z,11.73
2018-12-31T21:27:42.235Z,13.23
2018-12-31T21:30:11.469Z,14.23
2018-12-31T21:32:40.762Z,13.93
2018-12-31T21:35:09.755Z,14.13
2018-12-31T21:37:38.855Z,14.30
2018-12-31T21:40:09.427Z,11.53
2018-12-31T21:42:38.481Z,14.23
2018-12-31T21:45:08.826Z,10.23
2018-12-31T21:47:38.079Z,12.87
2018-12-31T21:50:07.475Z,13.27
2018-12-31T21:52:36.624Z,10.70
2018-12-31T21:55:06.447Z,10.97
2018-12-31T21:57:35.609Z,11.90
2018-12-31T22:00:06.800Z,12.30
2018-12-31T22:02:35.748Z,13.00
2018-12-31T22:05:04.870Z,11.60
2018-12-31T22:07:33.748Z,14.77
2018-12-31T22:10:02.860Z,11.90
2018-12-31T22:12:32.122Z,14.07
2018-12-31T22:15:00.999Z,15.50
2018-12-31T22:17:30.208Z,16.10
2018-12-31T22:19:59.179Z,17.30
2018-12-31T22:22:28.191Z,16.63
2018-12-31T22:24:57.177Z,16.57
2018-12-31T22:27:26.476Z,17.40
2018-12-31T22:29:55.378Z,18.00
2018-12-31T22:32:24.377Z,15.93
2018-12-31T22:34:53.447Z,16.37
2018-12-31T22:37:22.558Z,16.27
2018-12-31T22:39:51.469Z,18.23
2018-12-31T22:42:20.543Z,19.10
2018-12-31T22:44:49.578Z,22.23
2018-12-31T22:47:19.827Z,20.30
2018-12-31T22:49:48.712Z,21.47
2018-12-31T22:52:17.570Z,23.20
2018-12-31T22:54:46.878Z,22.60
2018-12-31T22:57:15.928Z,24.90
2018-12-31T22:59:45.227Z,24.63
2018-12-31T23:02:14.407Z,39.37
2018-12-31T23:04:43.275Z,42.33
2018-12-31T23:07:12.133Z,61.47
2018-12-31T23:09:41.628Z,112.03
2018-12-31T23:12:10.599Z,132.53
2018-12-31T23:14:39.709Z,126.37
2018-12-31T23:17:08.778Z,104.07
2018-12-31T23:19:41.793Z,96.87
2018-12-31T23:22:08.670Z,70.63
2018-12-31T23:24:39.199Z,82.30
2018-12-31T23:27:08.214Z,73.43
2018-12-31T23:29:37.548Z,62.33
2018-12-31T23:32:06.700Z,64.80
2018-12-31T23:34:35.630Z,54.83
2018-12-31T23:37:04.844Z,43.80
2018-12-31T23:39:36.886Z,46.63
2018-12-31T23:42:05.791Z,44.03
2018-12-31T23:44:34.874Z,49.13
2018-12-31T23:47:04.163Z,39.00
2018-12-31T23:49:33.486Z,44.03
2018-12-31T23:52:02.627Z,41.30
2018-12-31T23:54:31.674Z,45.07
2018-12-31T23:57:00.758Z,45.90
2018-12-31T23:59:29.848Z,35.77
